Cave City, Kentucky
Current Conditions -  °F | °C
As of 5:55 PM on Sunday 23 Nov 2014 (Local Time) from KGLW Reporting Station
Overcast Overcast  
Wind Chill: 14°   Ceiling: 1200
Heat Index: 14°   Visibility: 10mi
Dew Point: 14°   Wind: 14mph
Humidity: 99%   Direction: 150°SSE
Pressure: 29.41"   Gusts: 20mph
Location:  37.14°N, 85.96°W
Report Text: KGLW 232355Z AUTO 15012G17KT 10SM BKN012 BKN021 OVC029 14/14 A2941 RMK AO2 P0002 60030 T01370136 10137 20128
Loading
Personal Weather Stations






























Interactive Weather Map New forecast layout! Learn more

10-Day Weather Forecast

Advertisements
Track Severe Weather on mobile